createdAt,value
2019-02-17T00:00:56.809Z,0.30
2019-02-17T00:03:31.501Z,0.20
2019-02-17T00:06:03.472Z,0.20
2019-02-17T00:08:34.436Z,0.30
2019-02-17T00:11:04.530Z,0.30
2019-02-17T00:13:34.609Z,0.30
2019-02-17T00:16:05.681Z,0.30
2019-02-17T00:18:45.213Z,0.20
2019-02-17T00:21:15.393Z,0.10
2019-02-17T00:23:52.213Z,0.00
2019-02-17T00:26:24.364Z,0.00
2019-02-17T00:28:59.410Z,0.00
2019-02-17T00:31:26.306Z,0.00
2019-02-17T00:33:59.493Z,-0.10
2019-02-17T00:36:29.565Z,-0.30
2019-02-17T00:39:01.642Z,-0.50
2019-02-17T00:41:31.715Z,-0.60
2019-02-17T00:44:02.874Z,-0.70
2019-02-17T00:46:36.010Z,-0.70
2019-02-17T00:49:11.845Z,-0.60
2019-02-17T00:51:43.709Z,-0.50
2019-02-17T00:54:13.751Z,-0.40
2019-02-17T00:56:43.856Z,-0.40
2019-02-17T00:59:13.947Z,-0.40
2019-02-17T01:01:53.209Z,-0.30
2019-02-17T01:04:23.305Z,-0.40
2019-02-17T01:06:57.490Z,-0.60
2019-02-17T01:09:33.709Z,-0.40
2019-02-17T01:12:03.797Z,-0.30
2019-02-17T01:14:34.873Z,-0.40
2019-02-17T01:17:04.973Z,-0.50
2019-02-17T01:19:35.052Z,-0.60
2019-02-17T01:22:05.154Z,-0.80
2019-02-17T01:24:36.265Z,-0.70
2019-02-17T01:27:07.034Z,-0.70
2019-02-17T01:29:45.989Z,-0.70
2019-02-17T01:32:16.987Z,-0.70
2019-02-17T01:34:53.095Z,-0.90
2019-02-17T01:37:23.172Z,-1.00
2019-02-17T01:40:00.349Z,-1.10
2019-02-17T01:42:30.410Z,-1.10
2019-02-17T01:45:00.525Z,-1.20
2019-02-17T01:47:30.611Z,-1.20
2019-02-17T01:50:10.427Z,-1.10
2019-02-17T01:52:40.516Z,-1.10
2019-02-17T01:55:10.741Z,-1.00
2019-02-17T01:57:40.871Z,-0.90
2019-02-17T02:00:16.167Z,-0.80
2019-02-17T02:02:46.256Z,-0.80
2019-02-17T02:05:17.090Z,-0.80
2019-02-17T02:07:47.187Z,-0.80
2019-02-17T02:10:17.284Z,-0.90
2019-02-17T02:12:47.375Z,-1.10
2019-02-17T02:15:20.541Z,-1.10
2019-02-17T02:17:50.578Z,-1.10
2019-02-17T02:20:21.660Z,-1.00
2019-02-17T02:22:58.741Z,-1.00
2019-02-17T02:25:34.690Z,-1.00
2019-02-17T02:28:10.534Z,-0.90
2019-02-17T02:30:44.696Z,-1.00
2019-02-17T02:33:15.011Z,-1.10
2019-02-17T02:35:45.202Z,-1.20
2019-02-17T02:38:16.256Z,-1.20
2019-02-17T02:40:47.274Z,-1.30
2019-02-17T02:43:19.412Z,-1.30
2019-02-17T02:45:52.537Z,-1.40
2019-02-17T02:48:23.677Z,-1.50
2019-02-17T02:50:57.564Z,-1.70
2019-02-17T02:53:27.689Z,-1.80
2019-02-17T02:56:02.911Z,-1.80
2019-02-17T02:58:42.026Z,-1.90
2019-02-17T03:01:12.893Z,-1.90
2019-02-17T03:03:45.886Z,-1.90
2019-02-17T03:06:16.430Z,-2.00
2019-02-17T03:09:01.706Z,-2.00
2019-02-17T03:11:37.692Z,-1.90
2019-02-17T03:14:09.745Z,-1.90
2019-02-17T03:16:39.849Z,-1.80
2019-02-17T03:19:09.949Z,-1.60
2019-02-17T03:21:42.020Z,-1.60
2019-02-17T03:24:17.865Z,-1.60
2019-02-17T03:26:47.978Z,-1.60
2019-02-17T03:29:21.072Z,-1.50
2019-02-17T03:31:53.134Z,-1.50
2019-02-17T03:34:32.068Z,-1.50
2019-02-17T03:37:02.162Z,-1.50
2019-02-17T03:39:32.281Z,-1.40
2019-02-17T03:42:02.798Z,-1.40
2019-02-17T03:44:33.877Z,-1.50
2019-02-17T03:47:04.962Z,-1.50
2019-02-17T03:49:38.104Z,-1.50
2019-02-17T03:52:09.224Z,-1.50
2019-02-17T03:54:40.284Z,-1.60
2019-02-17T03:57:10.381Z,-1.70
2019-02-17T03:59:41.684Z,-1.70
2019-02-17T04:02:11.788Z,-1.70
2019-02-17T04:04:43.846Z,-1.70
2019-02-17T04:07:13.966Z,-1.70
2019-02-17T04:09:44.074Z,-1.70
2019-02-17T04:12:18.186Z,-1.80
2019-02-17T04:14:48.757Z,-1.90
2019-02-17T04:17:19.781Z,-1.90
2019-02-17T04:19:49.876Z,-1.90
2019-02-17T04:22:19.988Z,-2.00
2019-02-17T04:24:51.029Z,-2.00
2019-02-17T04:27:22.064Z,-1.90
2019-02-17T04:29:52.182Z,-1.90
2019-02-17T04:32:22.300Z,-1.90
2019-02-17T04:34:54.387Z,-2.00
2019-02-17T04:37:24.486Z,-2.10
2019-02-17T04:39:56.552Z,-2.10
2019-02-17T04:42:26.730Z,-2.00
2019-02-17T04:44:56.818Z,-2.10
2019-02-17T04:47:29.794Z,-2.10
2019-02-17T04:49:59.896Z,-2.20
2019-02-17T04:52:30.057Z,-2.10
2019-02-17T04:55:00.298Z,-2.00
2019-02-17T04:57:33.317Z,-1.70
2019-02-17T05:00:04.067Z,-1.60
2019-02-17T05:02:34.168Z,-1.50
2019-02-17T05:05:06.612Z,-1.50
2019-02-17T05:07:38.530Z,-1.50
2019-02-17T05:10:12.345Z,-1.60
2019-02-17T05:12:42.438Z,-1.80
2019-02-17T05:15:12.558Z,-1.90
2019-02-17T05:17:42.642Z,-1.90
2019-02-17T05:20:12.825Z,-1.90
2019-02-17T05:22:44.461Z,-1.90
2019-02-17T05:25:14.564Z,-2.10
2019-02-17T05:27:44.654Z,-2.10
2019-02-17T05:30:14.743Z,-2.10
2019-02-17T05:32:47.510Z,-2.10
2019-02-17T05:35:17.598Z,-2.20
2019-02-17T05:37:47.693Z,-2.20
2019-02-17T05:40:18.783Z,-2.20
2019-02-17T05:42:48.894Z,-2.30
2019-02-17T05:45:18.981Z,-2.30
2019-02-17T05:47:49.082Z,-2.30
2019-02-17T05:50:21.087Z,-2.30
2019-02-17T05:52:53.219Z,-2.30
2019-02-17T05:55:23.249Z,-2.30
2019-02-17T05:57:54.325Z,-2.40
2019-02-17T06:00:25.888Z,-2.30
2019-02-17T06:02:56.886Z,-2.30
2019-02-17T06:05:33.045Z,-2.10
2019-02-17T06:08:09.209Z,-2.00
2019-02-17T06:10:41.310Z,-2.00
2019-02-17T06:13:11.396Z,-2.10
2019-02-17T06:15:42.431Z,-2.00
2019-02-17T06:18:12.528Z,-2.00
2019-02-17T06:20:43.583Z,-2.10
2019-02-17T06:23:21.510Z,-2.10
2019-02-17T06:25:51.616Z,-2.10
2019-02-17T06:28:22.655Z,-2.00
2019-02-17T06:30:52.751Z,-2.00
2019-02-17T06:33:28.725Z,-1.90
2019-02-17T06:35:58.830Z,-1.90
2019-02-17T06:38:34.742Z,-1.90
2019-02-17T06:41:04.822Z,-1.80
2019-02-17T06:43:34.927Z,-1.80
2019-02-17T06:46:05.388Z,-1.70
2019-02-17T06:48:35.487Z,-1.60
2019-02-17T06:51:08.262Z,-1.50
2019-02-17T06:53:38.344Z,-1.30
2019-02-17T06:56:13.914Z,-1.20
2019-02-17T06:58:44.006Z,-1.10
2019-02-17T07:01:24.410Z,-1.00
2019-02-17T07:03:48.814Z,-0.90
2019-02-17T07:06:29.209Z,-0.80
2019-02-17T07:09:08.124Z,-0.70
2019-02-17T07:11:38.190Z,-0.40
2019-02-17T07:14:08.274Z,0.30
2019-02-17T07:16:39.342Z,1.00
2019-02-17T07:19:11.327Z,1.60
2019-02-17T07:21:41.434Z,2.10
2019-02-17T07:24:12.482Z,2.90
2019-02-17T07:26:42.547Z,3.20
2019-02-17T07:29:16.894Z,3.60
2019-02-17T07:31:48.049Z,4.00
2019-02-17T07:34:18.134Z,4.50
2019-02-17T07:36:50.215Z,5.00
2019-02-17T07:39:33.151Z,5.50
2019-02-17T07:42:03.228Z,5.80
2019-02-17T07:44:33.358Z,6.20
2019-02-17T07:47:03.434Z,6.50
2019-02-17T07:49:33.517Z,6.80
2019-02-17T07:52:03.622Z,6.60
2019-02-17T07:54:33.695Z,6.60
2019-02-17T07:57:04.151Z,6.60
2019-02-17T07:59:38.256Z,6.90
2019-02-17T08:02:08.368Z,7.40
2019-02-17T08:04:38.424Z,7.70
2019-02-17T08:07:08.505Z,8.10
2019-02-17T08:09:38.736Z,8.80
2019-02-17T08:12:08.764Z,9.30
2019-02-17T08:14:38.855Z,10.00
2019-02-17T08:17:08.979Z,10.60
2019-02-17T08:19:39.071Z,10.90
2019-02-17T08:22:09.175Z,11.30
2019-02-17T08:24:48.295Z,11.50
2019-02-17T08:27:18.547Z,11.80
2019-02-17T08:29:58.873Z,12.00
2019-02-17T08:32:30.943Z,12.30
2019-02-17T08:35:09.167Z,12.10
2019-02-17T08:37:39.300Z,11.80
2019-02-17T08:40:11.367Z,11.30
2019-02-17T08:42:48.199Z,11.50
2019-02-17T08:45:19.267Z,11.30
2019-02-17T08:47:49.359Z,10.90
2019-02-17T08:50:24.479Z,10.60
2019-02-17T08:52:55.680Z,10.40
2019-02-17T08:55:25.767Z,10.40
2019-02-17T08:57:55.952Z,10.60
2019-02-17T09:00:36.534Z,11.10
2019-02-17T09:03:07.575Z,11.40
2019-02-17T09:05:44.255Z,11.70
2019-02-17T09:08:12.466Z,12.00
2019-02-17T09:10:42.619Z,12.70
2019-02-17T09:13:18.458Z,13.40
2019-02-17T09:15:48.454Z,13.80
2019-02-17T09:18:18.647Z,14.30
2019-02-17T09:20:50.811Z,14.70
2019-02-17T09:23:26.668Z,14.80
2019-02-17T09:25:57.728Z,15.10
2019-02-17T09:28:32.115Z,15.10
2019-02-17T09:31:02.211Z,15.30
2019-02-17T09:33:33.362Z,14.80
2019-02-17T09:36:03.460Z,15.30
2019-02-17T09:38:34.551Z,15.60
2019-02-17T09:41:04.691Z,15.70
2019-02-17T09:43:34.775Z,16.10
2019-02-17T09:46:04.955Z,16.10
2019-02-17T09:48:35.937Z,15.90
2019-02-17T09:51:06.998Z,15.40
2019-02-17T09:53:38.031Z,15.40
2019-02-17T09:56:08.123Z,15.80
2019-02-17T09:58:39.220Z,16.00
2019-02-17T10:01:11.247Z,15.70
2019-02-17T10:03:41.361Z,15.10
2019-02-17T10:06:17.841Z,14.90
2019-02-17T10:09:00.535Z,14.40
2019-02-17T10:11:30.767Z,14.30
2019-02-17T10:14:01.728Z,14.40
2019-02-17T10:16:31.849Z,14.90
2019-02-17T10:19:01.975Z,14.40
2019-02-17T10:21:35.609Z,15.00
2019-02-17T10:24:05.703Z,16.00
2019-02-17T10:26:35.803Z,16.00
2019-02-17T10:29:05.931Z,15.50
2019-02-17T10:31:38.570Z,15.40
2019-02-17T10:34:08.649Z,15.80
2019-02-17T10:36:39.727Z,16.70
2019-02-17T10:39:11.443Z,17.30
2019-02-17T10:41:41.607Z,18.00
2019-02-17T10:44:12.651Z,17.40
2019-02-17T10:46:43.685Z,18.00
2019-02-17T10:49:21.743Z,17.40
2019-02-17T10:51:53.727Z,17.40
2019-02-17T10:54:23.826Z,18.60
2019-02-17T10:56:54.015Z,18.80
2019-02-17T10:59:24.184Z,18.80
2019-02-17T11:01:55.251Z,18.80
2019-02-17T11:04:31.311Z,19.30
2019-02-17T11:07:01.699Z,20.00
2019-02-17T11:09:31.844Z,20.50
2019-02-17T11:12:01.943Z,20.80
2019-02-17T11:14:32.059Z,21.20
2019-02-17T11:17:03.081Z,21.40
2019-02-17T11:19:35.127Z,21.70
2019-02-17T11:22:05.279Z,21.90
2019-02-17T11:24:36.275Z,21.50
2019-02-17T11:27:06.501Z,21.60
2019-02-17T11:29:37.513Z,21.70
2019-02-17T11:32:07.680Z,21.90
2019-02-17T11:34:37.787Z,22.10
2019-02-17T11:37:13.043Z,22.90
2019-02-17T11:39:44.117Z,22.90
2019-02-17T11:42:15.179Z,23.20
2019-02-17T11:44:46.228Z,22.80
2019-02-17T11:47:16.323Z,23.10
2019-02-17T11:49:48.798Z,23.20
2019-02-17T11:52:18.888Z,22.70
2019-02-17T11:54:48.984Z,22.40
2019-02-17T11:57:19.307Z,22.00
2019-02-17T11:59:49.423Z,22.80
2019-02-17T12:02:24.989Z,22.80
2019-02-17T12:04:52.279Z,23.20
2019-02-17T12:07:22.368Z,22.80
2019-02-17T12:09:52.463Z,22.00
2019-02-17T12:12:28.591Z,22.80
2019-02-17T12:15:00.659Z,21.10
2019-02-17T12:17:32.733Z,21.30
2019-02-17T12:20:04.536Z,20.80
2019-02-17T12:22:36.761Z,20.50
2019-02-17T12:25:07.685Z,20.60
2019-02-17T12:27:45.499Z,20.60
2019-02-17T12:30:16.764Z,22.20
2019-02-17T12:32:46.851Z,22.10
2019-02-17T12:35:17.879Z,22.80
2019-02-17T12:37:48.090Z,23.10
2019-02-17T12:40:20.064Z,24.00
2019-02-17T12:42:51.080Z,25.00
2019-02-17T12:45:21.312Z,25.40
2019-02-17T12:47:57.880Z,25.30
2019-02-17T12:50:24.196Z,25.20
2019-02-17T12:52:54.316Z,25.10
2019-02-17T12:55:25.169Z,25.30
2019-02-17T12:58:01.241Z,24.50
2019-02-17T13:00:32.301Z,25.10
2019-02-17T13:03:05.089Z,26.00
2019-02-17T13:05:36.131Z,26.60
2019-02-17T13:08:06.224Z,25.50
2019-02-17T13:10:36.320Z,25.50
2019-02-17T13:13:08.411Z,24.90
2019-02-17T13:15:39.452Z,24.80
2019-02-17T13:18:09.544Z,24.80
2019-02-17T13:20:39.733Z,25.20
2019-02-17T13:23:09.807Z,25.10
2019-02-17T13:25:40.861Z,25.40
2019-02-17T13:28:10.959Z,25.30
2019-02-17T13:30:41.048Z,24.80
2019-02-17T13:33:13.220Z,25.00
2019-02-17T13:35:43.404Z,25.20
2019-02-17T13:38:14.516Z,24.20
2019-02-17T13:40:52.828Z,23.40
2019-02-17T13:43:31.280Z,23.60
2019-02-17T13:46:03.301Z,23.30
2019-02-17T13:48:34.355Z,23.40
2019-02-17T13:51:04.476Z,23.30
2019-02-17T13:53:34.567Z,23.80
2019-02-17T13:56:05.716Z,24.20
2019-02-17T13:58:36.800Z,24.60
2019-02-17T14:01:07.794Z,24.30
2019-02-17T14:03:37.904Z,24.10
2019-02-17T14:06:08.866Z,23.90
2019-02-17T14:08:47.056Z,22.80
2019-02-17T14:11:17.240Z,22.40
2019-02-17T14:13:47.326Z,21.90
2019-02-17T14:16:18.341Z,22.30
2019-02-17T14:18:50.328Z,22.60
2019-02-17T14:21:20.492Z,22.40
2019-02-17T14:23:50.560Z,21.90
2019-02-17T14:26:27.632Z,22.00
2019-02-17T14:28:57.736Z,22.10
2019-02-17T14:31:28.769Z,22.40
2019-02-17T14:33:58.972Z,22.60
2019-02-17T14:36:29.036Z,22.60
2019-02-17T14:38:59.236Z,22.40
2019-02-17T14:41:29.320Z,22.30
2019-02-17T14:44:01.314Z,22.80
2019-02-17T14:46:32.544Z,22.60
2019-02-17T14:49:11.488Z,22.20
2019-02-17T14:51:41.597Z,22.40
2019-02-17T14:54:13.736Z,22.90
2019-02-17T14:56:43.820Z,22.70
2019-02-17T14:59:15.880Z,22.30
2019-02-17T15:01:47.023Z,22.50
2019-02-17T15:04:31.064Z,22.50
2019-02-17T15:07:02.100Z,22.50
2019-02-17T15:09:41.257Z,22.70
2019-02-17T15:12:13.326Z,22.70
2019-02-17T15:14:44.409Z,22.50
2019-02-17T15:17:20.285Z,22.10
2019-02-17T15:19:56.260Z,21.20
2019-02-17T15:22:32.964Z,21.30
2019-02-17T15:25:13.129Z,21.40
2019-02-17T15:27:44.202Z,21.30
2019-02-17T15:30:20.297Z,20.90
2019-02-17T15:33:03.687Z,20.50
2019-02-17T15:35:29.236Z,20.10
2019-02-17T15:37:59.323Z,19.80
2019-02-17T15:40:29.409Z,19.60
2019-02-17T15:43:00.466Z,19.40
2019-02-17T15:45:31.521Z,19.10
2019-02-17T15:48:09.318Z,18.70
2019-02-17T15:50:39.414Z,18.40
2019-02-17T15:53:12.520Z,18.30
2019-02-17T15:55:42.610Z,18.10
2019-02-17T15:58:14.600Z,18.00
2019-02-17T16:00:45.257Z,17.90
2019-02-17T16:03:15.372Z,17.30
2019-02-17T16:05:51.301Z,16.90
2019-02-17T16:08:29.228Z,16.70
2019-02-17T16:10:59.313Z,16.60
2019-02-17T16:13:31.384Z,16.50
2019-02-17T16:16:02.985Z,16.30
2019-02-17T16:18:33.072Z,16.10
2019-02-17T16:21:06.171Z,15.90
2019-02-17T16:23:37.186Z,15.50
2019-02-17T16:26:08.162Z,15.20
2019-02-17T16:28:39.186Z,14.70
2019-02-17T16:31:12.369Z,14.10
2019-02-17T16:33:45.553Z,13.40
2019-02-17T16:36:15.638Z,12.50
2019-02-17T16:38:46.640Z,11.60
2019-02-17T16:41:17.656Z,10.80
2019-02-17T16:43:48.631Z,10.20
2019-02-17T16:46:21.692Z,9.80
2019-02-17T16:49:02.539Z,9.50
2019-02-17T16:51:32.736Z,9.20
2019-02-17T16:54:02.825Z,8.90
2019-02-17T16:56:32.917Z,8.60
2019-02-17T16:59:03.081Z,8.30
2019-02-17T17:01:34.163Z,8.00
2019-02-17T17:04:04.256Z,7.70
2019-02-17T17:06:43.522Z,7.50
2019-02-17T17:09:13.633Z,7.30
2019-02-17T17:11:45.692Z,7.00
2019-02-17T17:14:15.773Z,6.90
2019-02-17T17:16:45.877Z,6.90
2019-02-17T17:19:15.957Z,6.80
2019-02-17T17:21:46.057Z,6.50
2019-02-17T17:24:25.953Z,6.30
2019-02-17T17:26:56.973Z,6.00
2019-02-17T17:29:35.985Z,5.90
2019-02-17T17:32:06.091Z,5.80
2019-02-17T17:34:36.170Z,5.40
2019-02-17T17:37:06.257Z,5.30
2019-02-17T17:39:39.761Z,5.10
2019-02-17T17:42:09.829Z,5.00
2019-02-17T17:44:39.920Z,4.90
2019-02-17T17:47:13.054Z,4.70
2019-02-17T17:49:43.137Z,4.50
2019-02-17T17:52:14.221Z,4.30
2019-02-17T17:54:46.281Z,4.20
2019-02-17T17:57:22.353Z,4.20
2019-02-17T17:59:52.429Z,4.10
2019-02-17T18:02:24.458Z,4.10
2019-02-17T18:05:08.821Z,4.20
2019-02-17T18:07:34.005Z,4.30
2019-02-17T18:10:15.389Z,4.40
2019-02-17T18:12:52.238Z,4.50
2019-02-17T18:15:22.354Z,4.50
2019-02-17T18:17:57.333Z,4.50
2019-02-17T18:20:27.505Z,4.50
2019-02-17T18:22:57.585Z,4.40
2019-02-17T18:25:34.423Z,4.40
2019-02-17T18:28:04.509Z,4.20
2019-02-17T18:30:34.626Z,3.90
2019-02-17T18:33:04.705Z,3.60
2019-02-17T18:35:40.613Z,3.60
2019-02-17T18:38:12.709Z,3.80
2019-02-17T18:40:46.153Z,4.10
2019-02-17T18:43:16.510Z,4.20
2019-02-17T18:45:46.621Z,4.20
2019-02-17T18:48:17.664Z,4.20
2019-02-17T18:50:48.070Z,4.40
2019-02-17T18:53:18.209Z,4.60
2019-02-17T18:55:48.293Z,4.90
2019-02-17T18:58:24.422Z,5.20
2019-02-17T19:00:54.472Z,5.30
2019-02-17T19:03:24.563Z,5.30
2019-02-17T19:05:54.676Z,5.20
2019-02-17T19:08:25.737Z,5.00
2019-02-17T19:10:55.854Z,4.70
2019-02-17T19:13:26.953Z,4.50
2019-02-17T19:15:59.209Z,4.30
2019-02-17T19:18:31.265Z,4.40
2019-02-17T19:21:05.521Z,4.40
2019-02-17T19:23:35.634Z,4.40
2019-02-17T19:26:05.749Z,4.30
2019-02-17T19:28:35.845Z,4.10
2019-02-17T19:31:06.892Z,3.90
2019-02-17T19:33:36.978Z,3.70
2019-02-17T19:36:08.065Z,3.50
2019-02-17T19:38:38.161Z,3.40
2019-02-17T19:41:09.197Z,3.20
2019-02-17T19:43:40.285Z,3.00
2019-02-17T19:46:10.401Z,3.00
2019-02-17T19:48:40.513Z,3.00
2019-02-17T19:51:10.646Z,3.00
2019-02-17T19:53:40.697Z,3.00
2019-02-17T19:56:16.570Z,3.00
2019-02-17T19:58:47.617Z,3.20
2019-02-17T20:01:17.701Z,3.40
2019-02-17T20:03:53.240Z,3.40
2019-02-17T20:06:31.196Z,3.40
2019-02-17T20:09:15.302Z,3.40
2019-02-17T20:11:55.357Z,3.40
2019-02-17T20:14:25.513Z,3.30
2019-02-17T20:16:57.554Z,3.20
2019-02-17T20:19:28.641Z,3.00
2019-02-17T20:22:04.561Z,3.10
2019-02-17T20:24:35.602Z,3.10
2019-02-17T20:27:05.717Z,3.00
2019-02-17T20:29:36.769Z,2.90
2019-02-17T20:32:06.846Z,3.00
2019-02-17T20:34:36.931Z,3.10
2019-02-17T20:37:07.046Z,3.30
2019-02-17T20:39:38.049Z,3.40
2019-02-17T20:42:10.110Z,3.40
2019-02-17T20:44:40.199Z,3.30
2019-02-17T20:47:12.198Z,3.30
2019-02-17T20:49:51.282Z,3.30
2019-02-17T20:52:23.287Z,3.30
2019-02-17T20:54:54.322Z,3.10
2019-02-17T20:57:24.410Z,3.00
2019-02-17T20:59:58.685Z,2.90
2019-02-17T21:02:28.786Z,2.80
2019-02-17T21:05:07.646Z,2.70
2019-02-17T21:07:37.751Z,2.70
2019-02-17T21:10:12.311Z,2.60
2019-02-17T21:12:46.804Z,2.50
2019-02-17T21:15:29.614Z,2.50
2019-02-17T21:18:15.810Z,2.50
2019-02-17T21:20:56.971Z,2.40
2019-02-17T21:23:33.482Z,2.50
2019-02-17T21:26:03.727Z,2.50
2019-02-17T21:28:36.294Z,2.50
2019-02-17T21:31:06.367Z,2.60
2019-02-17T21:33:36.458Z,2.70
2019-02-17T21:36:06.534Z,2.80
2019-02-17T21:38:38.567Z,2.80
2019-02-17T21:41:09.772Z,2.90
2019-02-17T21:43:39.845Z,2.80
2019-02-17T21:46:09.964Z,2.60
2019-02-17T21:48:40.154Z,2.40
2019-02-17T21:51:10.217Z,2.40
2019-02-17T21:53:40.378Z,2.40
2019-02-17T21:56:11.990Z,2.30
2019-02-17T21:58:42.090Z,2.40
2019-02-17T22:01:14.124Z,2.60
2019-02-17T22:03:44.202Z,2.70
2019-02-17T22:06:20.370Z,2.90
2019-02-17T22:08:59.510Z,2.80
2019-02-17T22:11:35.436Z,2.60
2019-02-17T22:14:08.066Z,2.60
2019-02-17T22:16:39.130Z,2.60
2019-02-17T22:19:09.298Z,2.60
2019-02-17T22:21:39.402Z,2.50
2019-02-17T22:24:09.530Z,2.50
2019-02-17T22:26:39.614Z,2.50
2019-02-17T22:29:09.714Z,2.30
2019-02-17T22:31:40.737Z,2.20
2019-02-17T22:34:10.842Z,2.30
2019-02-17T22:36:43.648Z,2.40
2019-02-17T22:39:14.605Z,2.50
2019-02-17T22:41:44.682Z,2.50
2019-02-17T22:44:15.730Z,2.50
2019-02-17T22:46:45.807Z,2.40
2019-02-17T22:49:17.838Z,2.30
2019-02-17T22:51:47.910Z,2.30
2019-02-17T22:54:17.988Z,2.10
2019-02-17T22:56:50.023Z,2.00
2019-02-17T22:59:21.059Z,2.10
2019-02-17T23:01:51.202Z,2.10
2019-02-17T23:04:21.590Z,2.10
2019-02-17T23:07:01.640Z,2.20
2019-02-17T23:09:31.814Z,2.40
2019-02-17T23:12:01.890Z,2.40
2019-02-17T23:14:32.930Z,2.30
2019-02-17T23:17:03.002Z,2.40
2019-02-17T23:19:33.078Z,2.60
2019-02-17T23:22:03.159Z,2.90
2019-02-17T23:24:34.334Z,3.00
2019-02-17T23:27:04.422Z,2.90
2019-02-17T23:29:34.495Z,2.80
2019-02-17T23:32:05.518Z,2.70
2019-02-17T23:34:35.611Z,2.70
2019-02-17T23:37:05.688Z,2.60
2019-02-17T23:39:37.698Z,2.50
2019-02-17T23:42:10.204Z,2.30
2019-02-17T23:44:40.307Z,2.20
2019-02-17T23:47:12.334Z,2.30
2019-02-17T23:49:46.474Z,2.50
2019-02-17T23:52:17.506Z,2.60
2019-02-17T23:54:49.542Z,2.50
2019-02-17T23:57:21.484Z,2.40
2019-02-17T23:59:59.258Z,2.40
